Irving North's Hourly Summary for Friday, May 11, 2018
Hour Temp
(f)
RH
(%)
Solar Rad.
(MJ/m2)
Rainfall
(in)
Wind
(mph)
5/11/2018 12:00 AM 76 55 0 0 9.39
5/11/2018 1:00 AM 74 63 0 0 10.06
5/11/2018 2:00 AM 73 68 0 0 9.37
5/11/2018 3:00 AM 72 72 0 0 9.16
5/11/2018 4:00 AM 71 77 0 0 8.86
5/11/2018 5:00 AM 70 80 0 0 9
5/11/2018 6:00 AM 70 79 0.03 0 8.58
5/11/2018 7:00 AM 71 75 0.25 0 8.21
5/11/2018 8:00 AM 72 69 0.8 0 10.02
5/11/2018 9:00 AM 75 60 1.96 0 11.06
5/11/2018 10:00 AM 77 55 2.48 0 11.83
5/11/2018 11:00 AM 80 48 3.08 0 12.28
5/11/2018 12:00 PM 82 45 3.15 0 11.7
5/11/2018 1:00 PM 84 42 3.22 0 11.27
5/11/2018 2:00 PM 85 42 3.17 0 12.27
5/11/2018 3:00 PM 86 40 2.92 0 10.8
5/11/2018 4:00 PM 87 39 2.4 0 12.24
5/11/2018 5:00 PM 86 39 1.68 0 11.79
5/11/2018 6:00 PM 86 39 0.46 0 10.67
5/11/2018 7:00 PM 84 42 0.3 0 9.7
5/11/2018 8:00 PM 82 44 0.01 0 8.97
5/11/2018 9:00 PM 81 45 0 0 7.57
5/11/2018 10:00 PM 79 48 0 0 7.7
5/11/2018 11:00 PM 78 51 0 0 8.04
Data Summary 78 54 25.91 0.00 10.02